sensor_id;sensor_type;location;lat;lon;timestamp;P1;durP1;ratioP1;P2;durP2;ratioP2
66800;SDS011;53703;50.326;19.122;2023-02-28T00:02:54;6.90;;;3.80;;
66800;SDS011;53703;50.326;19.122;2023-02-28T00:05:48;6.00;;;3.50;;
66800;SDS011;53703;50.326;19.122;2023-02-28T00:08:41;7.10;;;3.30;;
66800;SDS011;53703;50.326;19.122;2023-02-28T00:11:36;7.00;;;3.40;;
66800;SDS011;53703;50.326;19.122;2023-02-28T00:14:31;7.00;;;3.30;;
66800;SDS011;53703;50.326;19.122;2023-02-28T00:17:25;8.60;;;3.60;;
66800;SDS011;53703;50.326;19.122;2023-02-28T00:20:19;6.20;;;3.60;;
66800;SDS011;53703;50.326;19.122;2023-02-28T00:23:13;7.50;;;3.60;;
66800;SDS011;53703;50.326;19.122;2023-02-28T00:26:07;7.40;;;3.60;;
66800;SDS011;53703;50.326;19.122;2023-02-28T00:29:01;8.80;;;3.50;;
66800;SDS011;53703;50.326;19.122;2023-02-28T00:31:55;6.50;;;3.40;;
66800;SDS011;53703;50.326;19.122;2023-02-28T00:34:49;7.70;;;3.60;;
66800;SDS011;53703;50.326;19.122;2023-02-28T00:37:42;8.20;;;3.70;;
66800;SDS011;53703;50.326;19.122;2023-02-28T00:40:36;7.80;;;3.70;;
66800;SDS011;53703;50.326;19.122;2023-02-28T00:43:30;8.30;;;3.70;;
66800;SDS011;53703;50.326;19.122;2023-02-28T00:46:25;7.20;;;3.80;;
66800;SDS011;53703;50.326;19.122;2023-02-28T00:49:19;7.00;;;3.50;;
66800;SDS011;53703;50.326;19.122;2023-02-28T00:51:53;7.50;;;3.90;;
66800;SDS011;53703;50.326;19.122;2023-02-28T00:54:47;6.20;;;3.80;;
66800;SDS011;53703;50.326;19.122;2023-02-28T00:57:41;8.20;;;3.80;;
66800;SDS011;53703;50.326;19.122;2023-02-28T01:00:34;7.50;;;3.90;;
66800;SDS011;53703;50.326;19.122;2023-02-28T01:03:28;7.10;;;3.40;;
66800;SDS011;53703;50.326;19.122;2023-02-28T01:06:24;9.20;;;4.20;;
66800;SDS011;53703;50.326;19.122;2023-02-28T01:09:18;8.00;;;3.70;;
66800;SDS011;53703;50.326;19.122;2023-02-28T01:12:12;7.10;;;3.40;;
66800;SDS011;53703;50.326;19.122;2023-02-28T01:15:09;7.70;;;4.00;;
66800;SDS011;53703;50.326;19.122;2023-02-28T01:18:03;8.50;;;4.30;;
66800;SDS011;53703;50.326;19.122;2023-02-28T01:20:57;10.10;;;4.50;;
66800;SDS011;53703;50.326;19.122;2023-02-28T01:23:55;8.30;;;4.20;;
66800;SDS011;53703;50.326;19.122;2023-02-28T01:26:50;6.90;;;3.90;;
66800;SDS011;53703;50.326;19.122;2023-02-28T01:29:44;9.00;;;4.30;;
66800;SDS011;53703;50.326;19.122;2023-02-28T01:32:38;9.50;;;4.30;;
66800;SDS011;53703;50.326;19.122;2023-02-28T01:35:35;8.10;;;4.20;;
66800;SDS011;53703;50.326;19.122;2023-02-28T01:38:29;6.70;;;3.80;;
66800;SDS011;53703;50.326;19.122;2023-02-28T01:41:24;8.50;;;4.10;;
66800;SDS011;53703;50.326;19.122;2023-02-28T01:45:02;7.50;;;3.80;;
66800;SDS011;53703;50.326;19.122;2023-02-28T01:48:07;7.90;;;4.40;;
66800;SDS011;53703;50.326;19.122;2023-02-28T01:51:05;7.40;;;3.80;;
66800;SDS011;53703;50.326;19.122;2023-02-28T01:54:04;8.60;;;4.30;;
66800;SDS011;53703;50.326;19.122;2023-02-28T01:57:06;9.80;;;4.60;;
66800;SDS011;53703;50.326;19.122;2023-02-28T02:00:08;8.90;;;4.20;;
66800;SDS011;53703;50.326;19.122;2023-02-28T02:03:07;7.30;;;3.90;;
66800;SDS011;53703;50.326;19.122;2023-02-28T02:06:03;8.70;;;4.20;;
66800;SDS011;53703;50.326;19.122;2023-02-28T02:08:57;9.00;;;4.50;;
66800;SDS011;53703;50.326;19.122;2023-02-28T02:11:51;8.60;;;4.20;;
66800;SDS011;53703;50.326;19.122;2023-02-28T02:14:54;10.60;;;4.70;;
66800;SDS011;53703;50.326;19.122;2023-02-28T02:18:00;8.50;;;4.30;;
66800;SDS011;53703;50.326;19.122;2023-02-28T02:21:18;8.30;;;4.40;;
66800;SDS011;53703;50.326;19.122;2023-02-28T02:24:53;8.90;;;4.20;;
66800;SDS011;53703;50.326;19.122;2023-02-28T02:28:39;10.60;;;5.10;;
66800;SDS011;53703;50.326;19.122;2023-02-28T02:32:08;10.60;;;4.70;;
66800;SDS011;53703;50.326;19.122;2023-02-28T02:35:14;8.70;;;4.40;;
66800;SDS011;53703;50.326;19.122;2023-02-28T02:38:17;8.80;;;4.20;;
66800;SDS011;53703;50.326;19.122;2023-02-28T02:41:23;9.50;;;4.20;;
66800;SDS011;53703;50.326;19.122;2023-02-28T02:44:28;9.60;;;4.40;;
66800;SDS011;53703;50.326;19.122;2023-02-28T02:47:29;9.00;;;4.40;;
66800;SDS011;53703;50.326;19.122;2023-02-28T02:50:29;8.80;;;4.20;;
66800;SDS011;53703;50.326;19.122;2023-02-28T02:53:29;9.40;;;3.90;;
66800;SDS011;53703;50.326;19.122;2023-02-28T02:56:26;8.40;;;4.40;;
66800;SDS011;53703;50.326;19.122;2023-02-28T02:59:22;9.80;;;4.50;;
66800;SDS011;53703;50.326;19.122;2023-02-28T03:02:19;10.60;;;4.60;;
66800;SDS011;53703;50.326;19.122;2023-02-28T03:05:19;10.00;;;4.10;;
66800;SDS011;53703;50.326;19.122;2023-02-28T03:08:16;10.50;;;4.50;;
66800;SDS011;53703;50.326;19.122;2023-02-28T03:10:55;8.20;;;4.60;;
66800;SDS011;53703;50.326;19.122;2023-02-28T03:14:16;7.90;;;4.30;;
66800;SDS011;53703;50.326;19.122;2023-02-28T03:17:47;9.40;;;4.60;;
66800;SDS011;53703;50.326;19.122;2023-02-28T03:20:51;7.90;;;4.20;;
66800;SDS011;53703;50.326;19.122;2023-02-28T03:23:56;8.80;;;4.20;;
66800;SDS011;53703;50.326;19.122;2023-02-28T03:27:02;10.00;;;4.40;;
66800;SDS011;53703;50.326;19.122;2023-02-28T03:30:03;9.80;;;4.20;;
66800;SDS011;53703;50.326;19.122;2023-02-28T03:33:05;9.00;;;4.20;;
66800;SDS011;53703;50.326;19.122;2023-02-28T03:36:07;10.80;;;4.70;;
66800;SDS011;53703;50.326;19.122;2023-02-28T03:39:08;8.20;;;4.30;;
66800;SDS011;53703;50.326;19.122;2023-02-28T03:42:06;9.20;;;4.60;;
66800;SDS011;53703;50.326;19.122;2023-02-28T03:45:08;9.80;;;4.60;;
66800;SDS011;53703;50.326;19.122;2023-02-28T03:48:07;9.20;;;4.20;;
66800;SDS011;53703;50.326;19.122;2023-02-28T03:51:05;10.10;;;4.40;;
66800;SDS011;53703;50.326;19.122;2023-02-28T03:54:06;10.00;;;4.50;;
66800;SDS011;53703;50.326;19.122;2023-02-28T03:57:10;9.40;;;4.80;;
66800;SDS011;53703;50.326;19.122;2023-02-28T04:00:14;9.50;;;4.50;;
66800;SDS011;53703;50.326;19.122;2023-02-28T04:03:13;11.10;;;4.90;;
66800;SDS011;53703;50.326;19.122;2023-02-28T04:06:13;8.70;;;4.30;;
66800;SDS011;53703;50.326;19.122;2023-02-28T04:09:23;7.80;;;4.50;;
66800;SDS011;53703;50.326;19.122;2023-02-28T04:12:18;10.20;;;4.50;;
66800;SDS011;53703;50.326;19.122;2023-02-28T04:15:13;10.80;;;5.00;;
66800;SDS011;53703;50.326;19.122;2023-02-28T04:18:07;8.50;;;4.60;;
66800;SDS011;53703;50.326;19.122;2023-02-28T04:21:02;10.30;;;4.80;;
66800;SDS011;53703;50.326;19.122;2023-02-28T04:23:57;9.90;;;4.60;;
66800;SDS011;53703;50.326;19.122;2023-02-28T04:26:53;10.00;;;4.90;;
66800;SDS011;53703;50.326;19.122;2023-02-28T04:29:48;9.60;;;4.70;;
66800;SDS011;53703;50.326;19.122;2023-02-28T04:32:42;8.60;;;4.70;;
66800;SDS011;53703;50.326;19.122;2023-02-28T04:35:36;10.60;;;4.70;;
66800;SDS011;53703;50.326;19.122;2023-02-28T04:38:31;9.30;;;4.60;;
66800;SDS011;53703;50.326;19.122;2023-02-28T04:41:28;11.50;;;5.60;;
66800;SDS011;53703;50.326;19.122;2023-02-28T04:44:23;10.60;;;4.60;;
66800;SDS011;53703;50.326;19.122;2023-02-28T04:47:17;15.80;;;5.60;;
66800;SDS011;53703;50.326;19.122;2023-02-28T04:50:12;10.10;;;4.80;;
66800;SDS011;53703;50.326;19.122;2023-02-28T04:53:06;11.00;;;4.80;;
66800;SDS011;53703;50.326;19.122;2023-02-28T04:56:00;10.50;;;5.20;;
66800;SDS011;53703;50.326;19.122;2023-02-28T04:58:55;9.50;;;5.20;;
66800;SDS011;53703;50.326;19.122;2023-02-28T05:01:49;9.40;;;5.30;;
66800;SDS011;53703;50.326;19.122;2023-02-28T05:04:43;10.40;;;5.00;;
66800;SDS011;53703;50.326;19.122;2023-02-28T05:07:37;9.30;;;4.80;;
66800;SDS011;53703;50.326;19.122;2023-02-28T05:10:32;13.00;;;5.20;;
66800;SDS011;53703;50.326;19.122;2023-02-28T05:13:26;11.60;;;5.10;;
66800;SDS011;53703;50.326;19.122;2023-02-28T05:16:20;10.30;;;4.80;;
66800;SDS011;53703;50.326;19.122;2023-02-28T05:19:14;11.40;;;5.10;;
66800;SDS011;53703;50.326;19.122;2023-02-28T05:22:15;9.50;;;5.20;;
66800;SDS011;53703;50.326;19.122;2023-02-28T05:25:10;14.00;;;4.90;;
66800;SDS011;53703;50.326;19.122;2023-02-28T05:28:07;11.20;;;5.30;;
66800;SDS011;53703;50.326;19.122;2023-02-28T05:31:01;10.60;;;4.80;;
66800;SDS011;53703;50.326;19.122;2023-02-28T05:33:37;12.30;;;5.80;;
66800;SDS011;53703;50.326;19.122;2023-02-28T05:36:31;12.00;;;5.80;;
66800;SDS011;53703;50.326;19.122;2023-02-28T05:39:26;14.10;;;6.00;;
66800;SDS011;53703;50.326;19.122;2023-02-28T05:42:19;13.60;;;6.30;;
66800;SDS011;53703;50.326;19.122;2023-02-28T05:45:14;16.00;;;7.20;;
66800;SDS011;53703;50.326;19.122;2023-02-28T05:48:09;17.20;;;8.10;;
66800;SDS011;53703;50.326;19.122;2023-02-28T05:51:04;40.10;;;17.20;;
66800;SDS011;53703;50.326;19.122;2023-02-28T05:54:01;39.50;;;15.70;;
66800;SDS011;53703;50.326;19.122;2023-02-28T05:56:55;32.30;;;13.70;;
66800;SDS011;53703;50.326;19.122;2023-02-28T05:59:49;35.20;;;15.10;;
66800;SDS011;53703;50.326;19.122;2023-02-28T06:02:43;34.90;;;15.60;;
66800;SDS011;53703;50.326;19.122;2023-02-28T06:05:37;38.60;;;15.40;;
66800;SDS011;53703;50.326;19.122;2023-02-28T06:08:30;36.30;;;15.50;;
66800;SDS011;53703;50.326;19.122;2023-02-28T06:11:24;41.20;;;18.50;;
66800;SDS011;53703;50.326;19.122;2023-02-28T06:14:20;32.70;;;15.80;;
66800;SDS011;53703;50.326;19.122;2023-02-28T06:17:14;36.30;;;16.30;;
66800;SDS011;53703;50.326;19.122;2023-02-28T06:20:10;34.10;;;15.20;;
66800;SDS011;53703;50.326;19.122;2023-02-28T06:23:04;32.50;;;14.30;;
66800;SDS011;53703;50.326;19.122;2023-02-28T06:25:58;31.80;;;14.90;;
66800;SDS011;53703;50.326;19.122;2023-02-28T06:28:53;35.00;;;15.30;;
66800;SDS011;53703;50.326;19.122;2023-02-28T06:31:47;30.80;;;14.00;;
66800;SDS011;53703;50.326;19.122;2023-02-28T06:34:41;33.50;;;14.90;;
66800;SDS011;53703;50.326;19.122;2023-02-28T06:37:35;30.90;;;14.30;;
66800;SDS011;53703;50.326;19.122;2023-02-28T06:40:22;31.30;;;14.50;;
66800;SDS011;53703;50.326;19.122;2023-02-28T06:43:16;34.80;;;14.90;;
66800;SDS011;53703;50.326;19.122;2023-02-28T06:46:12;29.30;;;13.40;;
66800;SDS011;53703;50.326;19.122;2023-02-28T06:49:06;28.60;;;13.00;;
66800;SDS011;53703;50.326;19.122;2023-02-28T06:51:46;32.30;;;15.10;;
66800;SDS011;53703;50.326;19.122;2023-02-28T06:54:40;33.50;;;14.70;;
66800;SDS011;53703;50.326;19.122;2023-02-28T06:57:35;32.70;;;14.10;;
66800;SDS011;53703;50.326;19.122;2023-02-28T07:00:29;29.70;;;13.80;;
66800;SDS011;53703;50.326;19.122;2023-02-28T07:03:23;34.30;;;15.30;;
66800;SDS011;53703;50.326;19.122;2023-02-28T07:09:20;31.90;;;14.40;;
66800;SDS011;53703;50.326;19.122;2023-02-28T07:12:14;29.20;;;14.30;;
66800;SDS011;53703;50.326;19.122;2023-02-28T07:15:09;31.30;;;14.50;;
66800;SDS011;53703;50.326;19.122;2023-02-28T07:18:04;29.80;;;13.30;;
66800;SDS011;53703;50.326;19.122;2023-02-28T07:20:58;33.90;;;15.10;;
66800;SDS011;53703;50.326;19.122;2023-02-28T07:23:53;29.50;;;13.90;;
66800;SDS011;53703;50.326;19.122;2023-02-28T07:26:47;34.30;;;14.70;;
66800;SDS011;53703;50.326;19.122;2023-02-28T07:29:41;28.50;;;14.10;;
66800;SDS011;53703;50.326;19.122;2023-02-28T07:32:35;30.80;;;14.70;;
66800;SDS011;53703;50.326;19.122;2023-02-28T07:35:28;31.90;;;14.10;;
66800;SDS011;53703;50.326;19.122;2023-02-28T07:38:22;29.20;;;13.40;;
66800;SDS011;53703;50.326;19.122;2023-02-28T07:41:17;30.30;;;13.40;;
66800;SDS011;53703;50.326;19.122;2023-02-28T07:44:14;30.50;;;13.30;;
66800;SDS011;53703;50.326;19.122;2023-02-28T07:47:09;32.60;;;13.90;;
66800;SDS011;53703;50.326;19.122;2023-02-28T07:50:04;33.10;;;13.40;;
66800;SDS011;53703;50.326;19.122;2023-02-28T07:52:59;29.70;;;13.50;;
66800;SDS011;53703;50.326;19.122;2023-02-28T07:55:55;27.80;;;13.90;;
66800;SDS011;53703;50.326;19.122;2023-02-28T07:58:49;29.00;;;13.50;;
66800;SDS011;53703;50.326;19.122;2023-02-28T08:01:43;28.20;;;12.30;;
66800;SDS011;53703;50.326;19.122;2023-02-28T08:04:37;28.30;;;13.00;;
66800;SDS011;53703;50.326;19.122;2023-02-28T08:07:13;30.60;;;12.00;;
66800;SDS011;53703;50.326;19.122;2023-02-28T08:10:10;30.40;;;12.50;;
66800;SDS011;53703;50.326;19.122;2023-02-28T08:12:50;25.70;;;12.20;;
66800;SDS011;53703;50.326;19.122;2023-02-28T08:15:43;26.90;;;12.10;;
66800;SDS011;53703;50.326;19.122;2023-02-28T08:18:27;27.00;;;11.80;;
66800;SDS011;53703;50.326;19.122;2023-02-28T08:21:21;24.40;;;12.00;;
66800;SDS011;53703;50.326;19.122;2023-02-28T08:24:15;27.20;;;11.40;;
66800;SDS011;53703;50.326;19.122;2023-02-28T08:29:46;26.60;;;11.30;;
66800;SDS011;53703;50.326;19.122;2023-02-28T08:32:40;22.00;;;11.40;;
66800;SDS011;53703;50.326;19.122;2023-02-28T08:35:36;23.40;;;11.50;;
66800;SDS011;53703;50.326;19.122;2023-02-28T08:38:30;26.20;;;10.40;;
66800;SDS011;53703;50.326;19.122;2023-02-28T08:41:25;25.60;;;11.10;;
66800;SDS011;53703;50.326;19.122;2023-02-28T08:44:19;22.00;;;10.40;;
66800;SDS011;53703;50.326;19.122;2023-02-28T08:47:14;21.70;;;10.70;;
66800;SDS011;53703;50.326;19.122;2023-02-28T08:50:09;20.80;;;10.70;;
66800;SDS011;53703;50.326;19.122;2023-02-28T08:53:05;25.10;;;10.00;;
66800;SDS011;53703;50.326;19.122;2023-02-28T08:56:01;18.50;;;10.10;;
66800;SDS011;53703;50.326;19.122;2023-02-28T09:01:49;19.00;;;8.60;;
66800;SDS011;53703;50.326;19.122;2023-02-28T09:04:44;19.10;;;8.90;;
66800;SDS011;53703;50.326;19.122;2023-02-28T09:07:38;17.80;;;9.50;;
66800;SDS011;53703;50.326;19.122;2023-02-28T09:10:31;18.60;;;9.50;;
66800;SDS011;53703;50.326;19.122;2023-02-28T09:13:26;19.80;;;9.20;;
66800;SDS011;53703;50.326;19.122;2023-02-28T09:16:20;17.60;;;8.40;;
66800;SDS011;53703;50.326;19.122;2023-02-28T09:19:14;18.80;;;9.20;;
66800;SDS011;53703;50.326;19.122;2023-02-28T09:22:08;18.50;;;8.40;;
66800;SDS011;53703;50.326;19.122;2023-02-28T09:25:02;19.00;;;9.00;;
66800;SDS011;53703;50.326;19.122;2023-02-28T09:27:56;17.70;;;8.70;;
66800;SDS011;53703;50.326;19.122;2023-02-28T09:30:52;18.00;;;8.80;;
66800;SDS011;53703;50.326;19.122;2023-02-28T09:36:40;14.70;;;7.70;;
66800;SDS011;53703;50.326;19.122;2023-02-28T09:39:36;15.70;;;8.50;;
66800;SDS011;53703;50.326;19.122;2023-02-28T09:42:32;14.40;;;7.70;;
66800;SDS011;53703;50.326;19.122;2023-02-28T09:45:30;14.70;;;8.10;;
66800;SDS011;53703;50.326;19.122;2023-02-28T09:48:29;15.60;;;8.20;;
66800;SDS011;53703;50.326;19.122;2023-02-28T09:51:37;15.50;;;8.00;;
66800;SDS011;53703;50.326;19.122;2023-02-28T09:54:39;15.40;;;7.80;;
66800;SDS011;53703;50.326;19.122;2023-02-28T09:57:35;14.60;;;7.30;;
66800;SDS011;53703;50.326;19.122;2023-02-28T10:00:33;14.90;;;8.10;;
66800;SDS011;53703;50.326;19.122;2023-02-28T10:03:34;15.40;;;7.20;;
66800;SDS011;53703;50.326;19.122;2023-02-28T10:06:32;14.00;;;7.70;;
66800;SDS011;53703;50.326;19.122;2023-02-28T10:09:33;13.30;;;7.20;;
66800;SDS011;53703;50.326;19.122;2023-02-28T10:12:28;15.10;;;7.20;;
66800;SDS011;53703;50.326;19.122;2023-02-28T10:15:25;14.70;;;7.50;;
66800;SDS011;53703;50.326;19.122;2023-02-28T10:18:10;13.50;;;7.20;;
66800;SDS011;53703;50.326;19.122;2023-02-28T10:21:08;14.50;;;7.60;;
66800;SDS011;53703;50.326;19.122;2023-02-28T10:24:19;14.60;;;6.80;;
66800;SDS011;53703;50.326;19.122;2023-02-28T10:30:22;17.30;;;8.40;;
66800;SDS011;53703;50.326;19.122;2023-02-28T10:33:21;16.70;;;7.90;;
66800;SDS011;53703;50.326;19.122;2023-02-28T10:36:18;12.40;;;7.00;;
66800;SDS011;53703;50.326;19.122;2023-02-28T10:39:41;17.20;;;7.40;;
66800;SDS011;53703;50.326;19.122;2023-02-28T10:42:37;14.50;;;7.70;;
66800;SDS011;53703;50.326;19.122;2023-02-28T10:45:31;15.00;;;7.10;;
66800;SDS011;53703;50.326;19.122;2023-02-28T10:48:36;15.10;;;6.90;;
66800;SDS011;53703;50.326;19.122;2023-02-28T10:51:40;16.10;;;7.40;;
66800;SDS011;53703;50.326;19.122;2023-02-28T10:54:35;13.30;;;7.30;;
66800;SDS011;53703;50.326;19.122;2023-02-28T10:57:30;14.30;;;7.40;;
66800;SDS011;53703;50.326;19.122;2023-02-28T11:00:25;15.10;;;7.70;;
66800;SDS011;53703;50.326;19.122;2023-02-28T11:03:39;16.20;;;7.60;;
66800;SDS011;53703;50.326;19.122;2023-02-28T11:06:34;14.30;;;7.20;;
66800;SDS011;53703;50.326;19.122;2023-02-28T11:09:31;17.00;;;7.60;;
66800;SDS011;53703;50.326;19.122;2023-02-28T11:12:29;13.70;;;6.90;;
66800;SDS011;53703;50.326;19.122;2023-02-28T11:15:37;14.60;;;7.70;;
66800;SDS011;53703;50.326;19.122;2023-02-28T11:18:33;13.80;;;7.30;;
66800;SDS011;53703;50.326;19.122;2023-02-28T11:21:35;14.00;;;7.00;;
66800;SDS011;53703;50.326;19.122;2023-02-28T11:24:33;15.30;;;7.50;;
66800;SDS011;53703;50.326;19.122;2023-02-28T11:27:49;16.00;;;7.60;;
66800;SDS011;53703;50.326;19.122;2023-02-28T11:30:44;14.40;;;7.10;;
66800;SDS011;53703;50.326;19.122;2023-02-28T11:33:44;14.60;;;7.80;;
66800;SDS011;53703;50.326;19.122;2023-02-28T11:36:42;14.50;;;6.80;;
66800;SDS011;53703;50.326;19.122;2023-02-28T11:39:37;12.70;;;6.70;;
66800;SDS011;53703;50.326;19.122;2023-02-28T11:42:43;13.90;;;7.10;;
66800;SDS011;53703;50.326;19.122;2023-02-28T11:45:52;11.90;;;6.80;;
66800;SDS011;53703;50.326;19.122;2023-02-28T11:49:01;14.40;;;7.10;;
66800;SDS011;53703;50.326;19.122;2023-02-28T11:52:10;11.40;;;6.30;;
66800;SDS011;53703;50.326;19.122;2023-02-28T11:55:19;14.10;;;7.70;;
66800;SDS011;53703;50.326;19.122;2023-02-28T11:58:41;11.50;;;6.40;;
66800;SDS011;53703;50.326;19.122;2023-02-28T12:01:47;13.30;;;6.80;;
66800;SDS011;53703;50.326;19.122;2023-02-28T12:05:08;15.30;;;6.80;;
66800;SDS011;53703;50.326;19.122;2023-02-28T12:08:20;11.20;;;6.80;;
66800;SDS011;53703;50.326;19.122;2023-02-28T12:11:30;12.70;;;6.90;;
66800;SDS011;53703;50.326;19.122;2023-02-28T12:14:46;12.30;;;6.70;;
66800;SDS011;53703;50.326;19.122;2023-02-28T12:18:13;14.80;;;7.00;;
66800;SDS011;53703;50.326;19.122;2023-02-28T12:21:04;13.60;;;7.00;;
66800;SDS011;53703;50.326;19.122;2023-02-28T12:24:24;14.40;;;7.60;;
66800;SDS011;53703;50.326;19.122;2023-02-28T12:27:32;12.60;;;6.30;;
66800;SDS011;53703;50.326;19.122;2023-02-28T12:30:31;13.80;;;7.10;;
66800;SDS011;53703;50.326;19.122;2023-02-28T12:33:28;14.10;;;7.10;;
66800;SDS011;53703;50.326;19.122;2023-02-28T12:36:28;14.80;;;7.40;;
66800;SDS011;53703;50.326;19.122;2023-02-28T12:39:23;16.50;;;7.50;;
66800;SDS011;53703;50.326;19.122;2023-02-28T12:42:30;12.40;;;7.00;;
66800;SDS011;53703;50.326;19.122;2023-02-28T12:45:31;14.10;;;7.00;;
66800;SDS011;53703;50.326;19.122;2023-02-28T12:48:37;12.80;;;6.90;;
66800;SDS011;53703;50.326;19.122;2023-02-28T12:51:38;15.30;;;7.40;;
66800;SDS011;53703;50.326;19.122;2023-02-28T12:54:35;12.60;;;7.20;;
66800;SDS011;53703;50.326;19.122;2023-02-28T12:57:36;13.10;;;7.00;;
66800;SDS011;53703;50.326;19.122;2023-02-28T13:00:35;13.00;;;7.00;;
66800;SDS011;53703;50.326;19.122;2023-02-28T13:03:55;12.80;;;7.00;;
66800;SDS011;53703;50.326;19.122;2023-02-28T13:07:12;11.90;;;6.70;;
66800;SDS011;53703;50.326;19.122;2023-02-28T13:10:38;13.50;;;7.10;;
66800;SDS011;53703;50.326;19.122;2023-02-28T13:13:34;13.70;;;7.90;;
66800;SDS011;53703;50.326;19.122;2023-02-28T13:16:28;12.00;;;6.60;;
66800;SDS011;53703;50.326;19.122;2023-02-28T13:19:59;16.30;;;7.50;;
66800;SDS011;53703;50.326;19.122;2023-02-28T13:22:54;14.40;;;6.90;;
66800;SDS011;53703;50.326;19.122;2023-02-28T13:25:52;12.90;;;6.80;;
66800;SDS011;53703;50.326;19.122;2023-02-28T13:29:19;13.60;;;7.00;;
66800;SDS011;53703;50.326;19.122;2023-02-28T13:32:34;15.00;;;8.20;;
66800;SDS011;53703;50.326;19.122;2023-02-28T13:35:43;14.40;;;7.20;;
66800;SDS011;53703;50.326;19.122;2023-02-28T13:38:40;14.30;;;7.10;;
66800;SDS011;53703;50.326;19.122;2023-02-28T13:41:48;12.70;;;7.20;;
66800;SDS011;53703;50.326;19.122;2023-02-28T13:47:56;12.20;;;6.50;;
66800;SDS011;53703;50.326;19.122;2023-02-28T13:51:00;12.60;;;7.40;;
66800;SDS011;53703;50.326;19.122;2023-02-28T13:54:39;13.60;;;6.90;;
66800;SDS011;53703;50.326;19.122;2023-02-28T13:57:50;12.90;;;6.60;;
66800;SDS011;53703;50.326;19.122;2023-02-28T14:01:03;16.10;;;8.50;;
66800;SDS011;53703;50.326;19.122;2023-02-28T14:07:45;17.50;;;9.50;;
66800;SDS011;53703;50.326;19.122;2023-02-28T14:10:43;18.70;;;9.50;;
66800;SDS011;53703;50.326;19.122;2023-02-28T14:13:42;15.70;;;9.00;;
66800;SDS011;53703;50.326;19.122;2023-02-28T14:16:41;17.90;;;8.20;;
66800;SDS011;53703;50.326;19.122;2023-02-28T14:19:39;15.70;;;8.20;;
66800;SDS011;53703;50.326;19.122;2023-02-28T14:22:47;16.30;;;8.60;;
66800;SDS011;53703;50.326;19.122;2023-02-28T14:25:58;14.00;;;7.80;;
66800;SDS011;53703;50.326;19.122;2023-02-28T14:29:11;17.80;;;8.60;;
66800;SDS011;53703;50.326;19.122;2023-02-28T14:35:12;16.40;;;8.70;;
66800;SDS011;53703;50.326;19.122;2023-02-28T14:38:23;15.80;;;9.20;;
66800;SDS011;53703;50.326;19.122;2023-02-28T14:41:22;16.60;;;8.50;;
66800;SDS011;53703;50.326;19.122;2023-02-28T14:44:27;16.70;;;8.20;;
66800;SDS011;53703;50.326;19.122;2023-02-28T14:47:22;15.40;;;9.70;;
66800;SDS011;53703;50.326;19.122;2023-02-28T14:50:22;17.30;;;9.60;;
66800;SDS011;53703;50.326;19.122;2023-02-28T14:53:21;20.50;;;9.50;;
66800;SDS011;53703;50.326;19.122;2023-02-28T14:56:24;16.40;;;9.20;;
66800;SDS011;53703;50.326;19.122;2023-02-28T14:59:26;19.20;;;9.30;;
66800;SDS011;53703;50.326;19.122;2023-02-28T15:02:24;17.10;;;10.00;;
66800;SDS011;53703;50.326;19.122;2023-02-28T15:05:26;21.20;;;10.00;;
66800;SDS011;53703;50.326;19.122;2023-02-28T15:08:14;19.70;;;11.00;;
66800;SDS011;53703;50.326;19.122;2023-02-28T15:11:14;21.40;;;10.00;;
66800;SDS011;53703;50.326;19.122;2023-02-28T15:14:17;22.10;;;11.10;;
66800;SDS011;53703;50.326;19.122;2023-02-28T15:17:17;19.30;;;10.40;;
66800;SDS011;53703;50.326;19.122;2023-02-28T15:20:17;19.40;;;9.80;;
66800;SDS011;53703;50.326;19.122;2023-02-28T15:23:12;20.70;;;10.20;;
66800;SDS011;53703;50.326;19.122;2023-02-28T15:26:09;21.20;;;11.00;;
66800;SDS011;53703;50.326;19.122;2023-02-28T15:29:14;16.80;;;9.40;;
66800;SDS011;53703;50.326;19.122;2023-02-28T15:32:28;19.00;;;10.00;;
66800;SDS011;53703;50.326;19.122;2023-02-28T15:35:30;17.80;;;9.40;;
66800;SDS011;53703;50.326;19.122;2023-02-28T15:38:26;17.40;;;10.00;;
66800;SDS011;53703;50.326;19.122;2023-02-28T15:41:28;20.30;;;10.80;;
66800;SDS011;53703;50.326;19.122;2023-02-28T15:44:32;19.50;;;10.90;;
66800;SDS011;53703;50.326;19.122;2023-02-28T15:47:29;19.40;;;10.80;;
66800;SDS011;53703;50.326;19.122;2023-02-28T15:50:23;18.10;;;9.70;;
66800;SDS011;53703;50.326;19.122;2023-02-28T15:53:23;20.20;;;10.10;;
66800;SDS011;53703;50.326;19.122;2023-02-28T15:56:26;19.90;;;10.20;;
66800;SDS011;53703;50.326;19.122;2023-02-28T15:59:22;20.60;;;10.50;;
66800;SDS011;53703;50.326;19.122;2023-02-28T16:02:20;18.40;;;9.40;;
66800;SDS011;53703;50.326;19.122;2023-02-28T16:05:26;21.50;;;10.00;;
66800;SDS011;53703;50.326;19.122;2023-02-28T16:08:22;18.50;;;9.70;;
66800;SDS011;53703;50.326;19.122;2023-02-28T16:11:16;18.50;;;10.00;;
66800;SDS011;53703;50.326;19.122;2023-02-28T16:14:16;20.90;;;9.70;;
66800;SDS011;53703;50.326;19.122;2023-02-28T16:17:18;20.40;;;9.80;;
66800;SDS011;53703;50.326;19.122;2023-02-28T16:20:18;19.40;;;10.00;;
66800;SDS011;53703;50.326;19.122;2023-02-28T16:23:14;18.60;;;10.30;;
66800;SDS011;53703;50.326;19.122;2023-02-28T16:26:08;19.90;;;10.10;;
66800;SDS011;53703;50.326;19.122;2023-02-28T16:29:14;18.50;;;9.70;;
66800;SDS011;53703;50.326;19.122;2023-02-28T16:32:15;18.40;;;9.60;;
66800;SDS011;53703;50.326;19.122;2023-02-28T16:35:12;15.40;;;9.10;;
66800;SDS011;53703;50.326;19.122;2023-02-28T16:38:06;17.20;;;9.70;;
66800;SDS011;53703;50.326;19.122;2023-02-28T16:41:00;19.40;;;9.70;;
66800;SDS011;53703;50.326;19.122;2023-02-28T16:43:56;18.70;;;9.40;;
66800;SDS011;53703;50.326;19.122;2023-02-28T16:46:36;15.40;;;8.70;;
66800;SDS011;53703;50.326;19.122;2023-02-28T16:49:30;19.90;;;9.20;;
66800;SDS011;53703;50.326;19.122;2023-02-28T16:52:07;20.80;;;9.50;;
66800;SDS011;53703;50.326;19.122;2023-02-28T16:55:01;24.60;;;10.30;;
66800;SDS011;53703;50.326;19.122;2023-02-28T16:57:46;30.70;;;10.80;;
66800;SDS011;53703;50.326;19.122;2023-02-28T17:00:33;25.20;;;11.10;;
66800;SDS011;53703;50.326;19.122;2023-02-28T17:03:28;20.50;;;10.70;;
66800;SDS011;53703;50.326;19.122;2023-02-28T17:06:26;22.30;;;10.20;;
66800;SDS011;53703;50.326;19.122;2023-02-28T17:12:31;23.60;;;11.90;;
66800;SDS011;53703;50.326;19.122;2023-02-28T17:15:25;27.40;;;12.80;;
66800;SDS011;53703;50.326;19.122;2023-02-28T17:18:11;24.00;;;12.90;;
66800;SDS011;53703;50.326;19.122;2023-02-28T17:21:14;30.60;;;13.70;;
66800;SDS011;53703;50.326;19.122;2023-02-28T17:24:09;30.50;;;14.70;;
66800;SDS011;53703;50.326;19.122;2023-02-28T17:27:20;29.20;;;14.10;;
66800;SDS011;53703;50.326;19.122;2023-02-28T17:30:18;24.50;;;11.90;;
66800;SDS011;53703;50.326;19.122;2023-02-28T17:33:14;32.00;;;12.90;;
66800;SDS011;53703;50.326;19.122;2023-02-28T17:36:11;28.50;;;12.40;;
66800;SDS011;53703;50.326;19.122;2023-02-28T17:39:10;29.20;;;12.50;;
66800;SDS011;53703;50.326;19.122;2023-02-28T17:42:06;29.80;;;13.70;;
66800;SDS011;53703;50.326;19.122;2023-02-28T17:45:00;25.30;;;12.30;;
66800;SDS011;53703;50.326;19.122;2023-02-28T17:47:40;23.90;;;12.30;;
66800;SDS011;53703;50.326;19.122;2023-02-28T17:50:35;26.30;;;12.30;;
66800;SDS011;53703;50.326;19.122;2023-02-28T17:53:29;26.10;;;12.40;;